sensor_id;sensor_type;location;lat;lon;timestamp;P1;durP1;ratioP1;P2;durP2;ratioP2
67839;SDS011;54636;51.684;5.142;2024-02-21T00:00:28;5.38;;;3.13;;
67839;SDS011;54636;51.684;5.142;2024-02-21T00:02:53;12.98;;;3.90;;
67839;SDS011;54636;51.684;5.142;2024-02-21T00:05:19;6.13;;;2.78;;
67839;SDS011;54636;51.684;5.142;2024-02-21T00:07:44;7.28;;;3.90;;
67839;SDS011;54636;51.684;5.142;2024-02-21T00:10:10;6.78;;;3.78;;
67839;SDS011;54636;51.684;5.142;2024-02-21T00:12:35;5.65;;;3.08;;
67839;SDS011;54636;51.684;5.142;2024-02-21T00:15:00;5.25;;;2.90;;
67839;SDS011;54636;51.684;5.142;2024-02-21T00:17:26;9.40;;;3.47;;
67839;SDS011;54636;51.684;5.142;2024-02-21T00:19:51;8.30;;;3.38;;
67839;SDS011;54636;51.684;5.142;2024-02-21T00:22:16;7.55;;;3.20;;
67839;SDS011;54636;51.684;5.142;2024-02-21T00:24:42;10.13;;;3.08;;
67839;SDS011;54636;51.684;5.142;2024-02-21T00:27:07;12.25;;;3.47;;
67839;SDS011;54636;51.684;5.142;2024-02-21T00:29:32;7.53;;;3.85;;
67839;SDS011;54636;51.684;5.142;2024-02-21T00:31:59;9.32;;;4.05;;
67839;SDS011;54636;51.684;5.142;2024-02-21T00:34:24;5.20;;;3.67;;
67839;SDS011;54636;51.684;5.142;2024-02-21T00:36:50;8.18;;;3.80;;
67839;SDS011;54636;51.684;5.142;2024-02-21T00:39:15;11.30;;;3.88;;
67839;SDS011;54636;51.684;5.142;2024-02-21T00:41:40;11.23;;;3.60;;
67839;SDS011;54636;51.684;5.142;2024-02-21T00:44:06;9.02;;;4.03;;
67839;SDS011;54636;51.684;5.142;2024-02-21T00:46:31;8.15;;;3.63;;
67839;SDS011;54636;51.684;5.142;2024-02-21T00:48:57;10.63;;;4.35;;
67839;SDS011;54636;51.684;5.142;2024-02-21T00:51:22;6.22;;;3.40;;
67839;SDS011;54636;51.684;5.142;2024-02-21T00:53:47;10.77;;;4.38;;
67839;SDS011;54636;51.684;5.142;2024-02-21T00:56:13;9.55;;;4.47;;
67839;SDS011;54636;51.684;5.142;2024-02-21T00:58:38;11.07;;;3.88;;
67839;SDS011;54636;51.684;5.142;2024-02-21T01:01:03;11.93;;;4.43;;
67839;SDS011;54636;51.684;5.142;2024-02-21T01:03:29;7.10;;;3.92;;
67839;SDS011;54636;51.684;5.142;2024-02-21T01:05:54;13.13;;;4.00;;
67839;SDS011;54636;51.684;5.142;2024-02-21T01:08:19;16.20;;;5.60;;
67839;SDS011;54636;51.684;5.142;2024-02-21T01:10:45;12.65;;;5.18;;
67839;SDS011;54636;51.684;5.142;2024-02-21T01:13:10;9.75;;;4.68;;
67839;SDS011;54636;51.684;5.142;2024-02-21T01:15:35;9.52;;;4.72;;
67839;SDS011;54636;51.684;5.142;2024-02-21T01:18:01;15.13;;;5.90;;
67839;SDS011;54636;51.684;5.142;2024-02-21T01:20:28;13.77;;;6.07;;
67839;SDS011;54636;51.684;5.142;2024-02-21T01:22:53;13.23;;;6.45;;
67839;SDS011;54636;51.684;5.142;2024-02-21T01:25:19;12.80;;;6.68;;
67839;SDS011;54636;51.684;5.142;2024-02-21T01:27:44;12.60;;;6.20;;
67839;SDS011;54636;51.684;5.142;2024-02-21T01:30:09;11.32;;;5.20;;
67839;SDS011;54636;51.684;5.142;2024-02-21T01:32:38;11.20;;;5.78;;
67839;SDS011;54636;51.684;5.142;2024-02-21T01:35:03;10.45;;;5.90;;
67839;SDS011;54636;51.684;5.142;2024-02-21T01:37:29;8.38;;;4.53;;
67839;SDS011;54636;51.684;5.142;2024-02-21T01:39:54;10.57;;;5.45;;
67839;SDS011;54636;51.684;5.142;2024-02-21T01:42:19;13.65;;;6.38;;
67839;SDS011;54636;51.684;5.142;2024-02-21T01:44:45;13.88;;;5.72;;
67839;SDS011;54636;51.684;5.142;2024-02-21T01:47:10;15.25;;;5.95;;
67839;SDS011;54636;51.684;5.142;2024-02-21T01:49:38;12.52;;;4.90;;
67839;SDS011;54636;51.684;5.142;2024-02-21T01:52:05;15.50;;;6.05;;
67839;SDS011;54636;51.684;5.142;2024-02-21T01:54:31;14.52;;;6.20;;
67839;SDS011;54636;51.684;5.142;2024-02-21T01:56:58;13.98;;;6.60;;
67839;SDS011;54636;51.684;5.142;2024-02-21T01:59:23;10.18;;;4.72;;
67839;SDS011;54636;51.684;5.142;2024-02-21T02:01:50;4.15;;;2.92;;
67839;SDS011;54636;51.684;5.142;2024-02-21T02:04:16;10.20;;;4.80;;
67839;SDS011;54636;51.684;5.142;2024-02-21T02:06:42;11.55;;;5.53;;
67839;SDS011;54636;51.684;5.142;2024-02-21T02:09:09;8.73;;;5.10;;
67839;SDS011;54636;51.684;5.142;2024-02-21T02:11:34;19.75;;;5.97;;
67839;SDS011;54636;51.684;5.142;2024-02-21T02:14:00;13.35;;;5.18;;
67839;SDS011;54636;51.684;5.142;2024-02-21T02:16:26;12.05;;;5.47;;
67839;SDS011;54636;51.684;5.142;2024-02-21T02:18:51;13.90;;;4.60;;
67839;SDS011;54636;51.684;5.142;2024-02-21T02:21:26;13.85;;;4.93;;
67839;SDS011;54636;51.684;5.142;2024-02-21T02:23:54;17.08;;;5.22;;
67839;SDS011;54636;51.684;5.142;2024-02-21T02:26:20;14.18;;;5.00;;
67839;SDS011;54636;51.684;5.142;2024-02-21T02:28:45;14.13;;;4.97;;
67839;SDS011;54636;51.684;5.142;2024-02-21T02:31:10;10.85;;;5.10;;
67839;SDS011;54636;51.684;5.142;2024-02-21T02:33:36;10.57;;;4.22;;
67839;SDS011;54636;51.684;5.142;2024-02-21T02:36:01;17.27;;;4.65;;
67839;SDS011;54636;51.684;5.142;2024-02-21T02:38:27;11.75;;;4.13;;
67839;SDS011;54636;51.684;5.142;2024-02-21T02:40:52;14.57;;;4.60;;
67839;SDS011;54636;51.684;5.142;2024-02-21T02:43:17;14.38;;;5.10;;
67839;SDS011;54636;51.684;5.142;2024-02-21T02:45:43;9.00;;;4.45;;
67839;SDS011;54636;51.684;5.142;2024-02-21T02:48:08;13.60;;;3.88;;
67839;SDS011;54636;51.684;5.142;2024-02-21T02:50:33;8.32;;;3.97;;
67839;SDS011;54636;51.684;5.142;2024-02-21T02:52:59;9.63;;;3.22;;
67839;SDS011;54636;51.684;5.142;2024-02-21T02:55:24;14.32;;;3.85;;
67839;SDS011;54636;51.684;5.142;2024-02-21T02:57:51;11.75;;;4.13;;
67839;SDS011;54636;51.684;5.142;2024-02-21T03:00:16;9.55;;;4.32;;
67839;SDS011;54636;51.684;5.142;2024-02-21T03:02:42;9.13;;;3.58;;
67839;SDS011;54636;51.684;5.142;2024-02-21T03:05:11;8.48;;;3.78;;
67839;SDS011;54636;51.684;5.142;2024-02-21T03:07:39;8.23;;;3.75;;
67839;SDS011;54636;51.684;5.142;2024-02-21T03:10:04;8.23;;;3.90;;
67839;SDS011;54636;51.684;5.142;2024-02-21T03:12:31;10.05;;;4.18;;
67839;SDS011;54636;51.684;5.142;2024-02-21T03:14:56;9.38;;;3.92;;
67839;SDS011;54636;51.684;5.142;2024-02-21T03:17:22;5.28;;;3.33;;
67839;SDS011;54636;51.684;5.142;2024-02-21T03:19:48;9.88;;;3.75;;
67839;SDS011;54636;51.684;5.142;2024-02-21T03:22:14;4.00;;;2.30;;
67839;SDS011;54636;51.684;5.142;2024-02-21T03:24:40;12.25;;;4.30;;
67839;SDS011;54636;51.684;5.142;2024-02-21T03:27:06;11.43;;;4.55;;
67839;SDS011;54636;51.684;5.142;2024-02-21T03:29:31;8.77;;;4.25;;
67839;SDS011;54636;51.684;5.142;2024-02-21T03:31:57;14.48;;;3.55;;
67839;SDS011;54636;51.684;5.142;2024-02-21T03:34:22;8.95;;;3.38;;
67839;SDS011;54636;51.684;5.142;2024-02-21T03:36:47;13.70;;;5.13;;
67839;SDS011;54636;51.684;5.142;2024-02-21T03:39:13;12.43;;;3.70;;
67839;SDS011;54636;51.684;5.142;2024-02-21T03:41:38;9.48;;;4.18;;
67839;SDS011;54636;51.684;5.142;2024-02-21T03:44:03;9.20;;;4.00;;
67839;SDS011;54636;51.684;5.142;2024-02-21T03:46:30;14.98;;;4.57;;
67839;SDS011;54636;51.684;5.142;2024-02-21T03:48:56;7.03;;;3.78;;
67839;SDS011;54636;51.684;5.142;2024-02-21T03:51:22;9.48;;;4.38;;
67839;SDS011;54636;51.684;5.142;2024-02-21T03:53:47;6.63;;;4.38;;
67839;SDS011;54636;51.684;5.142;2024-02-21T03:56:12;10.55;;;4.68;;
67839;SDS011;54636;51.684;5.142;2024-02-21T03:58:38;10.50;;;4.55;;
67839;SDS011;54636;51.684;5.142;2024-02-21T04:01:03;14.05;;;4.97;;
67839;SDS011;54636;51.684;5.142;2024-02-21T04:03:29;12.55;;;5.20;;
67839;SDS011;54636;51.684;5.142;2024-02-21T04:05:55;7.75;;;4.72;;
67839;SDS011;54636;51.684;5.142;2024-02-21T04:08:21;12.23;;;5.97;;
67839;SDS011;54636;51.684;5.142;2024-02-21T04:10:47;13.40;;;5.32;;
67839;SDS011;54636;51.684;5.142;2024-02-21T04:13:13;11.07;;;4.90;;
67839;SDS011;54636;51.684;5.142;2024-02-21T04:15:38;14.43;;;5.97;;
67839;SDS011;54636;51.684;5.142;2024-02-21T04:18:03;15.57;;;5.97;;
67839;SDS011;54636;51.684;5.142;2024-02-21T04:20:29;16.63;;;6.22;;
67839;SDS011;54636;51.684;5.142;2024-02-21T04:22:55;13.98;;;6.18;;
67839;SDS011;54636;51.684;5.142;2024-02-21T04:25:20;13.00;;;6.45;;
67839;SDS011;54636;51.684;5.142;2024-02-21T04:27:46;12.15;;;6.07;;
67839;SDS011;54636;51.684;5.142;2024-02-21T04:30:11;17.83;;;6.43;;
67839;SDS011;54636;51.684;5.142;2024-02-21T04:32:37;17.67;;;6.30;;
67839;SDS011;54636;51.684;5.142;2024-02-21T04:35:03;14.23;;;6.63;;
67839;SDS011;54636;51.684;5.142;2024-02-21T04:37:28;16.92;;;5.00;;
67839;SDS011;54636;51.684;5.142;2024-02-21T04:39:54;13.23;;;6.40;;
67839;SDS011;54636;51.684;5.142;2024-02-21T04:42:19;17.92;;;7.18;;
67839;SDS011;54636;51.684;5.142;2024-02-21T04:44:45;14.40;;;6.65;;
67839;SDS011;54636;51.684;5.142;2024-02-21T04:47:10;20.73;;;8.80;;
67839;SDS011;54636;51.684;5.142;2024-02-21T04:49:35;17.23;;;8.05;;
67839;SDS011;54636;51.684;5.142;2024-02-21T04:52:01;13.38;;;7.22;;
67839;SDS011;54636;51.684;5.142;2024-02-21T04:54:27;19.27;;;6.88;;
67839;SDS011;54636;51.684;5.142;2024-02-21T04:56:52;21.73;;;7.70;;
67839;SDS011;54636;51.684;5.142;2024-02-21T04:59:18;15.52;;;7.30;;
67839;SDS011;54636;51.684;5.142;2024-02-21T05:01:43;17.92;;;7.47;;
67839;SDS011;54636;51.684;5.142;2024-02-21T05:04:10;16.88;;;6.45;;
67839;SDS011;54636;51.684;5.142;2024-02-21T05:06:38;16.55;;;8.25;;
67839;SDS011;54636;51.684;5.142;2024-02-21T05:09:04;15.73;;;7.57;;
67839;SDS011;54636;51.684;5.142;2024-02-21T05:11:30;15.65;;;7.72;;
67839;SDS011;54636;51.684;5.142;2024-02-21T05:13:56;19.05;;;8.25;;
67839;SDS011;54636;51.684;5.142;2024-02-21T05:16:21;12.52;;;5.90;;
67839;SDS011;54636;51.684;5.142;2024-02-21T05:18:47;20.40;;;8.18;;
67839;SDS011;54636;51.684;5.142;2024-02-21T05:21:12;18.58;;;6.95;;
67839;SDS011;54636;51.684;5.142;2024-02-21T05:23:38;12.95;;;6.90;;
67839;SDS011;54636;51.684;5.142;2024-02-21T05:26:04;14.95;;;7.20;;
67839;SDS011;54636;51.684;5.142;2024-02-21T05:28:30;10.18;;;4.60;;
67839;SDS011;54636;51.684;5.142;2024-02-21T05:30:56;18.33;;;7.20;;
67839;SDS011;54636;51.684;5.142;2024-02-21T05:33:22;14.18;;;6.57;;
67839;SDS011;54636;51.684;5.142;2024-02-21T05:35:47;15.95;;;7.22;;
67839;SDS011;54636;51.684;5.142;2024-02-21T05:38:14;14.43;;;6.93;;
67839;SDS011;54636;51.684;5.142;2024-02-21T05:40:40;14.23;;;7.90;;
67839;SDS011;54636;51.684;5.142;2024-02-21T05:43:09;18.02;;;6.72;;
67839;SDS011;54636;51.684;5.142;2024-02-21T05:45:35;10.70;;;6.32;;
67839;SDS011;54636;51.684;5.142;2024-02-21T05:48:01;17.52;;;7.25;;
67839;SDS011;54636;51.684;5.142;2024-02-21T05:50:27;12.48;;;6.00;;
67839;SDS011;54636;51.684;5.142;2024-02-21T05:52:56;22.90;;;7.35;;
67839;SDS011;54636;51.684;5.142;2024-02-21T05:55:22;5.63;;;4.15;;
67839;SDS011;54636;51.684;5.142;2024-02-21T05:57:48;20.08;;;7.40;;
67839;SDS011;54636;51.684;5.142;2024-02-21T06:00:14;14.70;;;5.80;;
67839;SDS011;54636;51.684;5.142;2024-02-21T06:02:40;11.55;;;6.68;;
67839;SDS011;54636;51.684;5.142;2024-02-21T06:05:06;14.68;;;5.28;;
67839;SDS011;54636;51.684;5.142;2024-02-21T06:07:33;13.40;;;6.38;;
67839;SDS011;54636;51.684;5.142;2024-02-21T06:10:00;11.95;;;5.10;;
67839;SDS011;54636;51.684;5.142;2024-02-21T06:12:26;9.02;;;4.75;;
67839;SDS011;54636;51.684;5.142;2024-02-21T06:14:52;12.88;;;5.95;;
67839;SDS011;54636;51.684;5.142;2024-02-21T06:17:17;11.75;;;6.40;;
67839;SDS011;54636;51.684;5.142;2024-02-21T06:19:43;10.38;;;5.55;;
67839;SDS011;54636;51.684;5.142;2024-02-21T06:22:09;21.15;;;6.43;;
67839;SDS011;54636;51.684;5.142;2024-02-21T06:24:35;8.82;;;5.43;;
67839;SDS011;54636;51.684;5.142;2024-02-21T06:27:01;15.32;;;6.97;;
67839;SDS011;54636;51.684;5.142;2024-02-21T06:29:27;12.80;;;6.35;;
67839;SDS011;54636;51.684;5.142;2024-02-21T06:31:53;16.05;;;7.75;;
67839;SDS011;54636;51.684;5.142;2024-02-21T06:34:19;10.20;;;6.40;;
67839;SDS011;54636;51.684;5.142;2024-02-21T06:36:44;20.27;;;7.10;;
67839;SDS011;54636;51.684;5.142;2024-02-21T06:39:10;14.48;;;7.53;;
67839;SDS011;54636;51.684;5.142;2024-02-21T06:41:36;17.63;;;7.25;;
67839;SDS011;54636;51.684;5.142;2024-02-21T06:44:02;15.05;;;7.18;;
67839;SDS011;54636;51.684;5.142;2024-02-21T06:46:28;18.17;;;6.85;;
67839;SDS011;54636;51.684;5.142;2024-02-21T06:48:54;17.23;;;7.53;;
67839;SDS011;54636;51.684;5.142;2024-02-21T06:51:23;19.00;;;7.35;;
67839;SDS011;54636;51.684;5.142;2024-02-21T06:53:50;15.38;;;6.72;;
67839;SDS011;54636;51.684;5.142;2024-02-21T06:56:15;12.00;;;6.60;;
67839;SDS011;54636;51.684;5.142;2024-02-21T06:58:41;10.85;;;7.13;;
67839;SDS011;54636;51.684;5.142;2024-02-21T07:01:06;14.70;;;7.20;;
67839;SDS011;54636;51.684;5.142;2024-02-21T07:03:32;16.70;;;6.72;;
67839;SDS011;54636;51.684;5.142;2024-02-21T07:05:57;17.13;;;7.57;;
67839;SDS011;54636;51.684;5.142;2024-02-21T07:08:23;13.18;;;6.43;;
67839;SDS011;54636;51.684;5.142;2024-02-21T07:10:48;14.10;;;5.97;;
67839;SDS011;54636;51.684;5.142;2024-02-21T07:13:14;12.60;;;6.63;;
67839;SDS011;54636;51.684;5.142;2024-02-21T07:15:40;13.38;;;6.03;;
67839;SDS011;54636;51.684;5.142;2024-02-21T07:18:06;8.02;;;5.30;;
67839;SDS011;54636;51.684;5.142;2024-02-21T07:20:31;15.45;;;6.65;;
67839;SDS011;54636;51.684;5.142;2024-02-21T07:22:58;12.88;;;6.78;;
67839;SDS011;54636;51.684;5.142;2024-02-21T07:25:24;12.43;;;6.53;;
67839;SDS011;54636;51.684;5.142;2024-02-21T07:27:49;13.48;;;7.18;;
67839;SDS011;54636;51.684;5.142;2024-02-21T07:30:16;15.85;;;6.55;;
67839;SDS011;54636;51.684;5.142;2024-02-21T07:32:42;14.35;;;7.30;;
67839;SDS011;54636;51.684;5.142;2024-02-21T07:35:07;18.30;;;7.18;;
67839;SDS011;54636;51.684;5.142;2024-02-21T07:37:37;14.40;;;6.30;;
67839;SDS011;54636;51.684;5.142;2024-02-21T07:40:04;16.80;;;6.75;;
67839;SDS011;54636;51.684;5.142;2024-02-21T07:42:30;11.45;;;5.75;;
67839;SDS011;54636;51.684;5.142;2024-02-21T07:44:56;11.85;;;5.97;;
67839;SDS011;54636;51.684;5.142;2024-02-21T07:47:22;14.13;;;6.88;;
67839;SDS011;54636;51.684;5.142;2024-02-21T07:49:47;14.90;;;6.25;;
67839;SDS011;54636;51.684;5.142;2024-02-21T07:52:13;8.15;;;5.50;;
67839;SDS011;54636;51.684;5.142;2024-02-21T07:54:40;12.80;;;6.15;;
67839;SDS011;54636;51.684;5.142;2024-02-21T07:57:06;13.57;;;6.22;;
67839;SDS011;54636;51.684;5.142;2024-02-21T07:59:32;14.02;;;7.18;;
67839;SDS011;54636;51.684;5.142;2024-02-21T08:01:57;10.18;;;5.55;;
67839;SDS011;54636;51.684;5.142;2024-02-21T08:04:23;14.60;;;7.07;;
67839;SDS011;54636;51.684;5.142;2024-02-21T08:06:54;12.48;;;6.93;;
67839;SDS011;54636;51.684;5.142;2024-02-21T08:09:21;17.38;;;7.68;;
67839;SDS011;54636;51.684;5.142;2024-02-21T08:11:47;13.10;;;6.38;;
67839;SDS011;54636;51.684;5.142;2024-02-21T08:14:12;15.65;;;6.15;;
67839;SDS011;54636;51.684;5.142;2024-02-21T08:16:41;11.25;;;6.43;;
67839;SDS011;54636;51.684;5.142;2024-02-21T08:19:06;11.90;;;6.45;;
67839;SDS011;54636;51.684;5.142;2024-02-21T08:21:32;10.13;;;6.05;;
67839;SDS011;54636;51.684;5.142;2024-02-21T08:23:57;7.35;;;5.25;;
67839;SDS011;54636;51.684;5.142;2024-02-21T08:26:22;11.68;;;5.97;;
67839;SDS011;54636;51.684;5.142;2024-02-21T08:28:48;9.43;;;5.35;;
67839;SDS011;54636;51.684;5.142;2024-02-21T08:31:18;10.63;;;5.38;;
67839;SDS011;54636;51.684;5.142;2024-02-21T08:33:44;12.13;;;5.70;;
67839;SDS011;54636;51.684;5.142;2024-02-21T08:36:16;8.13;;;5.53;;
67839;SDS011;54636;51.684;5.142;2024-02-21T08:38:43;12.13;;;5.72;;
67839;SDS011;54636;51.684;5.142;2024-02-21T08:41:08;8.48;;;5.05;;
67839;SDS011;54636;51.684;5.142;2024-02-21T08:43:33;8.32;;;5.10;;
67839;SDS011;54636;51.684;5.142;2024-02-21T08:46:00;12.57;;;6.07;;
67839;SDS011;54636;51.684;5.142;2024-02-21T08:48:26;10.95;;;6.43;;
67839;SDS011;54636;51.684;5.142;2024-02-21T08:50:51;11.23;;;5.13;;
67839;SDS011;54636;51.684;5.142;2024-02-21T08:53:17;6.50;;;5.13;;
67839;SDS011;54636;51.684;5.142;2024-02-21T08:55:42;10.75;;;6.75;;
67839;SDS011;54636;51.684;5.142;2024-02-21T08:58:09;6.30;;;4.45;;
67839;SDS011;54636;51.684;5.142;2024-02-21T09:00:34;9.85;;;5.05;;
67839;SDS011;54636;51.684;5.142;2024-02-21T09:03:00;9.95;;;5.10;;
67839;SDS011;54636;51.684;5.142;2024-02-21T09:05:25;8.75;;;5.35;;
67839;SDS011;54636;51.684;5.142;2024-02-21T09:07:51;10.70;;;5.03;;
67839;SDS011;54636;51.684;5.142;2024-02-21T09:10:16;8.63;;;4.72;;
67839;SDS011;54636;51.684;5.142;2024-02-21T09:12:42;8.80;;;4.82;;
67839;SDS011;54636;51.684;5.142;2024-02-21T09:15:07;12.13;;;4.90;;
67839;SDS011;54636;51.684;5.142;2024-02-21T09:17:33;5.28;;;3.45;;
67839;SDS011;54636;51.684;5.142;2024-02-21T09:19:58;8.90;;;4.55;;
67839;SDS011;54636;51.684;5.142;2024-02-21T09:22:28;5.28;;;4.35;;
67839;SDS011;54636;51.684;5.142;2024-02-21T09:24:53;6.38;;;3.58;;
67839;SDS011;54636;51.684;5.142;2024-02-21T09:27:18;6.75;;;3.97;;
67839;SDS011;54636;51.684;5.142;2024-02-21T09:29:44;5.03;;;4.38;;
67839;SDS011;54636;51.684;5.142;2024-02-21T09:32:09;4.43;;;3.72;;
67839;SDS011;54636;51.684;5.142;2024-02-21T09:34:34;5.43;;;3.95;;
67839;SDS011;54636;51.684;5.142;2024-02-21T09:37:00;4.70;;;3.58;;
67839;SDS011;54636;51.684;5.142;2024-02-21T09:39:25;4.38;;;3.63;;
67839;SDS011;54636;51.684;5.142;2024-02-21T09:41:53;5.30;;;3.53;;
67839;SDS011;54636;51.684;5.142;2024-02-21T09:44:23;6.18;;;3.88;;
67839;SDS011;54636;51.684;5.142;2024-02-21T09:49:30;3.97;;;3.70;;
67839;SDS011;54636;51.684;5.142;2024-02-21T09:51:57;5.88;;;3.63;;
67839;SDS011;54636;51.684;5.142;2024-02-21T09:54:26;7.88;;;4.43;;
67839;SDS011;54636;51.684;5.142;2024-02-21T09:56:53;5.47;;;4.20;;
67839;SDS011;54636;51.684;5.142;2024-02-21T09:59:18;5.22;;;4.70;;
67839;SDS011;54636;51.684;5.142;2024-02-21T10:01:44;4.75;;;4.32;;
67839;SDS011;54636;51.684;5.142;2024-02-21T10:04:09;4.60;;;4.30;;
67839;SDS011;54636;51.684;5.142;2024-02-21T10:06:35;9.45;;;5.38;;
67839;SDS011;54636;51.684;5.142;2024-02-21T10:09:02;4.88;;;4.30;;
67839;SDS011;54636;51.684;5.142;2024-02-21T10:11:28;3.92;;;3.63;;
67839;SDS011;54636;51.684;5.142;2024-02-21T10:14:03;6.07;;;5.00;;
67839;SDS011;54636;51.684;5.142;2024-02-21T10:16:32;8.63;;;4.47;;
67839;SDS011;54636;51.684;5.142;2024-02-21T10:18:58;8.43;;;4.47;;
67839;SDS011;54636;51.684;5.142;2024-02-21T10:21:24;5.18;;;4.63;;
67839;SDS011;54636;51.684;5.142;2024-02-21T10:23:50;6.60;;;4.07;;
67839;SDS011;54636;51.684;5.142;2024-02-21T10:26:20;4.75;;;3.80;;
67839;SDS011;54636;51.684;5.142;2024-02-21T10:28:46;4.85;;;4.38;;
67839;SDS011;54636;51.684;5.142;2024-02-21T10:31:31;5.82;;;4.10;;
67839;SDS011;54636;51.684;5.142;2024-02-21T10:33:58;4.88;;;3.53;;
67839;SDS011;54636;51.684;5.142;2024-02-21T10:36:27;6.60;;;4.28;;
67839;SDS011;54636;51.684;5.142;2024-02-21T10:38:53;5.57;;;5.07;;
67839;SDS011;54636;51.684;5.142;2024-02-21T10:41:22;8.55;;;4.68;;
67839;SDS011;54636;51.684;5.142;2024-02-21T10:43:55;5.60;;;4.70;;
67839;SDS011;54636;51.684;5.142;2024-02-21T10:46:22;7.82;;;4.68;;
67839;SDS011;54636;51.684;5.142;2024-02-21T10:49:00;6.18;;;4.25;;
67839;SDS011;54636;51.684;5.142;2024-02-21T10:51:33;10.00;;;4.53;;
67839;SDS011;54636;51.684;5.142;2024-02-21T10:56:51;5.78;;;3.75;;
67839;SDS011;54636;51.684;5.142;2024-02-21T10:59:19;10.25;;;4.30;;
67839;SDS011;54636;51.684;5.142;2024-02-21T11:01:45;8.20;;;3.72;;
67839;SDS011;54636;51.684;5.142;2024-02-21T11:04:10;6.57;;;4.40;;
67839;SDS011;54636;51.684;5.142;2024-02-21T11:06:37;6.80;;;3.90;;
67839;SDS011;54636;51.684;5.142;2024-02-21T11:11:33;4.43;;;3.35;;
67839;SDS011;54636;51.684;5.142;2024-02-21T11:14:09;7.95;;;3.97;;
67839;SDS011;54636;51.684;5.142;2024-02-21T11:16:36;8.82;;;3.60;;
67839;SDS011;54636;51.684;5.142;2024-02-21T11:19:07;7.88;;;4.00;;
67839;SDS011;54636;51.684;5.142;2024-02-21T11:21:35;7.75;;;3.00;;
67839;SDS011;54636;51.684;5.142;2024-02-21T11:24:02;7.85;;;4.13;;
67839;SDS011;54636;51.684;5.142;2024-02-21T11:26:28;4.70;;;3.20;;
67839;SDS011;54636;51.684;5.142;2024-02-21T11:28:58;10.05;;;3.70;;
67839;SDS011;54636;51.684;5.142;2024-02-21T11:31:25;4.03;;;2.92;;
67839;SDS011;54636;51.684;5.142;2024-02-21T11:33:52;3.92;;;2.70;;
67839;SDS011;54636;51.684;5.142;2024-02-21T11:36:24;5.47;;;3.35;;
67839;SDS011;54636;51.684;5.142;2024-02-21T11:38:51;8.73;;;3.83;;
67839;SDS011;54636;51.684;5.142;2024-02-21T11:41:17;8.13;;;3.45;;
67839;SDS011;54636;51.684;5.142;2024-02-21T11:43:43;3.78;;;2.95;;
67839;SDS011;54636;51.684;5.142;2024-02-21T11:46:09;4.68;;;2.75;;
67839;SDS011;54636;51.684;5.142;2024-02-21T11:48:34;5.95;;;3.35;;
67839;SDS011;54636;51.684;5.142;2024-02-21T11:51:00;5.03;;;2.67;;
67839;SDS011;54636;51.684;5.142;2024-02-21T11:53:26;5.53;;;2.83;;
67839;SDS011;54636;51.684;5.142;2024-02-21T11:55:55;5.65;;;2.72;;
67839;SDS011;54636;51.684;5.142;2024-02-21T11:58:21;7.55;;;2.88;;
67839;SDS011;54636;51.684;5.142;2024-02-21T12:00:47;3.45;;;2.35;;
67839;SDS011;54636;51.684;5.142;2024-02-21T12:03:13;7.05;;;2.47;;
67839;SDS011;54636;51.684;5.142;2024-02-21T12:05:38;3.60;;;2.35;;
67839;SDS011;54636;51.684;5.142;2024-02-21T12:08:04;7.40;;;2.70;;
67839;SDS011;54636;51.684;5.142;2024-02-21T12:10:30;5.30;;;2.55;;
67839;SDS011;54636;51.684;5.142;2024-02-21T12:13:05;10.18;;;2.58;;
67839;SDS011;54636;51.684;5.142;2024-02-21T12:15:34;10.27;;;3.03;;
67839;SDS011;54636;51.684;5.142;2024-02-21T12:17:59;5.05;;;2.20;;
67839;SDS011;54636;51.684;5.142;2024-02-21T12:20:25;5.95;;;2.45;;
67839;SDS011;54636;51.684;5.142;2024-02-21T12:22:51;4.32;;;2.17;;
67839;SDS011;54636;51.684;5.142;2024-02-21T12:25:19;2.90;;;1.90;;
67839;SDS011;54636;51.684;5.142;2024-02-21T12:27:51;9.95;;;2.83;;
67839;SDS011;54636;51.684;5.142;2024-02-21T12:30:16;3.47;;;2.55;;
67839;SDS011;54636;51.684;5.142;2024-02-21T12:32:42;3.92;;;2.55;;
67839;SDS011;54636;51.684;5.142;2024-02-21T12:35:07;5.00;;;2.35;;
67839;SDS011;54636;51.684;5.142;2024-02-21T12:37:33;11.10;;;2.67;;
67839;SDS011;54636;51.684;5.142;2024-02-21T12:39:58;4.25;;;2.47;;
67839;SDS011;54636;51.684;5.142;2024-02-21T12:42:24;6.32;;;2.63;;
67839;SDS011;54636;51.684;5.142;2024-02-21T12:44:51;5.40;;;2.65;;
67839;SDS011;54636;51.684;5.142;2024-02-21T12:47:17;7.18;;;2.83;;
67839;SDS011;54636;51.684;5.142;2024-02-21T12:49:44;6.88;;;2.40;;
67839;SDS011;54636;51.684;5.142;2024-02-21T12:52:10;5.03;;;2.15;;
67839;SDS011;54636;51.684;5.142;2024-02-21T12:54:36;6.97;;;3.03;;
67839;SDS011;54636;51.684;5.142;2024-02-21T12:57:01;3.78;;;2.08;;
67839;SDS011;54636;51.684;5.142;2024-02-21T12:59:28;5.35;;;2.58;;
67839;SDS011;54636;51.684;5.142;2024-02-21T13:01:54;7.32;;;2.50;;
67839;SDS011;54636;51.684;5.142;2024-02-21T13:04:19;4.40;;;2.05;;
67839;SDS011;54636;51.684;5.142;2024-02-21T13:06:46;3.97;;;2.20;;
67839;SDS011;54636;51.684;5.142;2024-02-21T13:09:12;5.20;;;2.22;;
67839;SDS011;54636;51.684;5.142;2024-02-21T13:11:38;7.80;;;2.97;;
67839;SDS011;54636;51.684;5.142;2024-02-21T13:14:05;4.10;;;2.05;;
67839;SDS011;54636;51.684;5.142;2024-02-21T13:16:31;4.95;;;2.03;;
67839;SDS011;54636;51.684;5.142;2024-02-21T13:18:56;3.03;;;2.30;;
67839;SDS011;54636;51.684;5.142;2024-02-21T13:21:22;6.43;;;2.60;;
67839;SDS011;54636;51.684;5.142;2024-02-21T13:23:47;7.80;;;2.30;;
67839;SDS011;54636;51.684;5.142;2024-02-21T13:26:12;10.50;;;2.55;;
67839;SDS011;54636;51.684;5.142;2024-02-21T13:28:39;2.85;;;1.45;;
67839;SDS011;54636;51.684;5.142;2024-02-21T13:31:05;5.63;;;2.15;;
67839;SDS011;54636;51.684;5.142;2024-02-21T13:33:31;3.08;;;1.98;;
67839;SDS011;54636;51.684;5.142;2024-02-21T13:35:56;4.75;;;2.10;;
67839;SDS011;54636;51.684;5.142;2024-02-21T13:38:21;10.48;;;2.35;;
67839;SDS011;54636;51.684;5.142;2024-02-21T13:40:49;2.78;;;1.58;;
67839;SDS011;54636;51.684;5.142;2024-02-21T13:43:15;7.05;;;2.55;;
67839;SDS011;54636;51.684;5.142;2024-02-21T13:45:41;4.00;;;2.40;;
67839;SDS011;54636;51.684;5.142;2024-02-21T13:48:23;2.20;;;1.80;;
67839;SDS011;54636;51.684;5.142;2024-02-21T13:50:49;8.57;;;2.30;;
67839;SDS011;54636;51.684;5.142;2024-02-21T13:53:15;3.53;;;2.03;;
67839;SDS011;54636;51.684;5.142;2024-02-21T13:55:40;4.68;;;2.30;;
67839;SDS011;54636;51.684;5.142;2024-02-21T13:58:06;3.80;;;2.50;;
67839;SDS011;54636;51.684;5.142;2024-02-21T14:00:31;3.55;;;1.85;;
67839;SDS011;54636;51.684;5.142;2024-02-21T14:02:59;3.95;;;2.25;;
67839;SDS011;54636;51.684;5.142;2024-02-21T14:05:26;3.83;;;2.53;;
67839;SDS011;54636;51.684;5.142;2024-02-21T14:07:51;8.05;;;2.28;;
67839;SDS011;54636;51.684;5.142;2024-02-21T14:10:19;4.25;;;2.28;;
67839;SDS011;54636;51.684;5.142;2024-02-21T14:12:45;4.85;;;2.08;;
67839;SDS011;54636;51.684;5.142;2024-02-21T14:15:10;6.63;;;2.50;;
67839;SDS011;54636;51.684;5.142;2024-02-21T14:17:36;7.47;;;2.00;;
67839;SDS011;54636;51.684;5.142;2024-02-21T14:20:02;6.15;;;1.88;;
67839;SDS011;54636;51.684;5.142;2024-02-21T14:22:29;2.40;;;2.20;;
67839;SDS011;54636;51.684;5.142;2024-02-21T14:24:55;5.00;;;2.15;;
67839;SDS011;54636;51.684;5.142;2024-02-21T14:27:21;5.53;;;2.72;;
67839;SDS011;54636;51.684;5.142;2024-02-21T14:29:47;5.43;;;2.40;;
67839;SDS011;54636;51.684;5.142;2024-02-21T14:32:12;6.47;;;2.47;;
67839;SDS011;54636;51.684;5.142;2024-02-21T14:34:38;3.70;;;2.10;;
67839;SDS011;54636;51.684;5.142;2024-02-21T14:37:03;3.00;;;2.50;;
67839;SDS011;54636;51.684;5.142;2024-02-21T14:39:29;6.88;;;2.70;;
67839;SDS011;54636;51.684;5.142;2024-02-21T14:41:55;3.25;;;2.80;;